Aérodrome :
LOGIN :

S'inscrire | Disclaimer

   EN    FR    IT 

 










Légende :    VFR   VFR Marginal   IFR   IFR Intensif   IFR Très Intensif
Visi : 
Plafond : 
>= 8 km
>= 3000ft
5 à 8 km
1000 à 3000 ft
1500m à 5 km
500 à 1000 ft
800 à 1500m
200 à 500 ft
< 800m
< 200 ft
Symboles :   Orages  Brouillard  Fortes neiges  Fortes précipitations  Vent > 20 kt
SIGMETs :   Divers  Orages  Givrage  Turbulence  Onde Orograph.  Cendres Volcan.







- Altitude de l'aérodrome : 779 ft
- Code IATA : CMF
- Voir les cartes d'approche


LFLB - Chambery / Aix-Les-Bains

DERNIER METAR :
  • 252000Z AUTO 17009KT 130V220 8000 RA FEW045/// OVC058/// ///TCU 12/09 Q1006

METARs EXPIRÉS :
  • 251930Z AUTO 33004KT 280V010 9999 -RA FEW052/// BKN064/// OVC080/// ///TCU 11/10 Q1006
  • 251900Z AUTO 35004KT 290V060 7000 -RA FEW058 BKN070 OVC082 11/10 Q1006 TEMPO 18020G30KT 4000 RA BKN050TCU
  • 251830Z AUTO 00000KT 9999 FEW062 BKN072 OVC086 11/09 Q1006 TEMPO 18020G30KT 4000 RA BKN050TCU
  • 251800Z AUTO VRB02KT 9999 FEW060 OVC076 11/10 Q1006 TEMPO VRB15G25KT SHRA BKN050TCU
  • 251730Z AUTO VRB01KT 9999 FEW062 BKN072 BKN084 12/10 Q1006 TEMPO VRB15G25KT SHRA BKN050TCU

TAF TAF LFLB
Valide du 25 à 12h jusqu'au 26 à 12h UTC


251100Z 2512/2612 36005KT CAVOK
PROB40
TEMPO 2512/2520 VRB15G25KT SHRA BKN050TCU
BECMG 2518/2520 18015G25KT BKN040
TEMPO 2520/2606 18020G30KT 4000 RA SCT020 OVC030
BECMG 2606/2608 VRB03KT OVC020
PROB40
TEMPO 2608/2612 -RA BKN012
Pas de NOTAMs connus pour ce terrain.



MET'MAP, la Météo Aéronautique d'un coup d'oeil ! - Copyright ORBIFLY Décembre 2007 - Disclaimer

ORBIFLY MET'MAP TEAM :

Programmation & Développement : Alexandra Zaïnal
Conception & Développement : Baudouin d'Aumeries
Co-Programmation & Développement : Marc-Olivier Méhu
Soutien technique & logistique : Manuel Goepfert

Contact : metmap@orbifly.com




SOURCES & CREDITS :

   NOAA